Time,TemperatureF,DewpointF,PressureIn,WindDirection,WindDirectionDegrees,WindSpeedMPH,WindSpeedGustMPH,Humidity,HourlyPrecipIn,Conditions,Clouds,dailyrainin,SoftwareType,DateUTC
2013-01-09 00:02:00,32.9,29.2,29.81,SW,229,4.0,5.0,86,0.00,,,0.00,HR-IXPWINDi_r2_v1.2.,2013-01-09 06:02:00,
2013-01-09 00:08:00,32.9,29.4,29.81,WSW,239,2.0,5.0,87,0.00,,,0.00,HR-IXPWINDi_r2_v1.2.,2013-01-09 06:08:00,
2013-01-09 00:13:00,32.9,29.2,29.82,WSW,257,2.0,5.0,86,0.00,,,0.00,HR-IXPWINDi_r2_v1.2.,2013-01-09 06:13:00,
2013-01-09 00:18:00,32.9,29.2,29.82,WSW,255,1.0,5.0,86,0.00,,,0.00,HR-IXPWINDi_r2_v1.2.,2013-01-09 06:18:00,
2013-01-09 00:24:00,32.9,29.2,29.81,WSW,255,2.0,5.0,86,0.00,,,0.00,HR-IXPWINDi_r2_v1.2.,2013-01-09 06:24:00,
2013-01-09 00:29:00,32.9,29.2,29.81,WSW,251,2.0,4.0,86,0.00,,,0.00,HR-IXPWINDi_r2_v1.2.,2013-01-09 06:29:00,
2013-01-09 00:34:00,32.9,29.2,29.82,SW,219,1.0,6.0,86,0.00,,,0.00,HR-IXPWINDi_r2_v1.2.,2013-01-09 06:34:00,
2013-01-09 00:39:00,32.9,29.2,29.82,South,177,2.0,6.0,86,0.00,,,0.00,HR-IXPWINDi_r2_v1.2.,2013-01-09 06:39:00,
2013-01-09 00:44:00,32.9,29.2,29.82,West,266,2.0,5.0,86,0.00,,,0.00,HR-IXPWINDi_r2_v1.2.,2013-01-09 06:44:00,
2013-01-09 00:49:00,32.9,29.2,29.82,West,277,0.0,4.0,86,0.00,,,0.00,HR-IXPWINDi_r2_v1.2.,2013-01-09 06:49:00,
2013-01-09 00:54:00,32.9,29.2,29.82,West,261,3.0,4.0,86,0.00,,,0.00,HR-IXPWINDi_r2_v1.2.,2013-01-09 06:54:00,
2013-01-09 00:59:00,32.8,29.1,29.81,WSW,241,2.0,4.0,86,0.00,,,0.00,HR-IXPWINDi_r2_v1.2.,2013-01-09 06:59:00,
2013-01-09 01:04:00,32.8,29.1,29.81,WSW,250,2.0,4.0,86,0.00,,,0.00,HR-IXPWINDi_r2_v1.2.,2013-01-09 07:04:00,
2013-01-09 01:09:00,32.8,29.1,29.81,West,265,2.0,4.0,86,0.00,,,0.00,HR-IXPWINDi_r2_v1.2.,2013-01-09 07:09:00,
2013-01-09 01:14:00,32.8,29.1,29.81,SW,226,1.0,5.0,86,0.00,,,0.00,HR-IXPWINDi_r2_v1.2.,2013-01-09 07:14:00,
2013-01-09 01:20:00,32.7,29.0,29.82,SSW,198,1.0,5.0,86,0.00,,,0.00,HR-IXPWINDi_r2_v1.2.,2013-01-09 07:20:00,
2013-01-09 01:25:00,32.7,29.0,29.82,WSW,248,3.0,3.0,86,0.00,,,0.00,HR-IXPWINDi_r2_v1.2.,2013-01-09 07:25:00,
2013-01-09 01:30:00,32.7,29.0,29.82,WSW,246,2.0,4.0,86,0.00,,,0.00,HR-IXPWINDi_r2_v1.2.,2013-01-09 07:30:00,
2013-01-09 01:35:00,32.7,29.0,29.82,West,274,1.0,8.0,86,0.00,,,0.00,HR-IXPWINDi_r2_v1.2.,2013-01-09 07:35:00,
2013-01-09 01:40:00,32.6,29.1,29.82,SSW,208,1.0,8.0,87,0.00,,,0.00,HR-IXPWINDi_r2_v1.2.,2013-01-09 07:40:00,
2013-01-09 01:46:00,32.6,29.1,29.82,SSW,193,0.0,5.0,87,0.00,,,0.00,HR-IXPWINDi_r2_v1.2.,2013-01-09 07:46:00,
2013-01-09 01:51:00,32.5,29.0,29.82,WNW,302,0.0,4.0,87,0.00,,,0.00,HR-IXPWINDi_r2_v1.2.,2013-01-09 07:51:00,
2013-01-09 01:56:00,32.5,29.0,29.82,South,189,0.0,4.0,87,0.00,,,0.00,HR-IXPWINDi_r2_v1.2.,2013-01-09 07:56:00,
2013-01-09 02:01:00,32.4,28.9,29.82,SSE,154,2.0,4.0,87,0.00,,,0.00,HR-IXPWINDi_r2_v1.2.,2013-01-09 08:01:00,
2013-01-09 02:06:00,32.3,28.8,29.82,South,181,1.0,4.0,87,0.00,,,0.00,HR-IXPWINDi_r2_v1.2.,2013-01-09 08:06:00,
2013-01-09 02:11:00,32.3,28.8,29.83,West,263,3.0,3.0,87,0.00,,,0.00,HR-IXPWINDi_r2_v1.2.,2013-01-09 08:11:00,
2013-01-09 02:17:00,32.2,28.7,29.83,WSW,252,3.0,5.0,87,0.00,,,0.00,HR-IXPWINDi_r2_v1.2.,2013-01-09 08:17:00,
2013-01-09 02:22:00,32.1,28.6,29.83,SW,214,0.0,5.0,87,0.00,,,0.00,HR-IXPWINDi_r2_v1.2.,2013-01-09 08:22:00,
2013-01-09 02:27:00,32.1,28.4,29.83,SSW,200,1.0,5.0,86,0.00,,,0.00,HR-IXPWINDi_r2_v1.2.,2013-01-09 08:27:00,
2013-01-09 02:32:00,32.0,28.3,29.84,East,98,1.0,4.0,86,0.00,,,0.00,HR-IXPWINDi_r2_v1.2.,2013-01-09 08:32:00,
2013-01-09 02:37:00,31.9,28.2,29.84,WNW,296,2.0,4.0,86,0.00,,,0.00,HR-IXPWINDi_r2_v1.2.,2013-01-09 08:37:00,
2013-01-09 02:43:00,31.9,28.2,29.84,SW,217,1.0,4.0,86,0.00,,,0.00,HR-IXPWINDi_r2_v1.2.,2013-01-09 08:43:00,
2013-01-09 02:48:00,31.9,28.2,29.84,WSW,257,1.0,3.0,86,0.00,,,0.00,HR-IXPWINDi_r2_v1.2.,2013-01-09 08:48:00,
2013-01-09 02:53:00,31.7,27.7,29.84,WNW,291,1.0,4.0,85,0.00,,,0.00,HR-IXPWINDi_r2_v1.2.,2013-01-09 08:53:00,
2013-01-09 02:58:00,31.6,27.6,29.85,South,191,2.0,4.0,85,0.00,,,0.00,HR-IXPWINDi_r2_v1.2.,2013-01-09 08:58:00,
2013-01-09 03:03:00,31.6,27.6,29.85,SSE,163,2.0,4.0,85,0.00,,,0.00,HR-IXPWINDi_r2_v1.2.,2013-01-09 09:03:00,
2013-01-09 03:08:00,31.5,27.8,29.85,South,177,2.0,4.0,86,0.00,,,0.00,HR-IXPWINDi_r2_v1.2.,2013-01-09 09:08:00,
2013-01-09 03:14:00,31.4,27.7,29.86,WSW,252,2.0,4.0,86,0.00,,,0.00,HR-IXPWINDi_r2_v1.2.,2013-01-09 09:14:00,
2013-01-09 03:19:00,31.4,27.7,29.86,West,281,1.0,4.0,86,0.00,,,0.00,HR-IXPWINDi_r2_v1.2.,2013-01-09 09:19:00,
2013-01-09 03:24:00,31.3,27.3,29.86,West,280,1.0,5.0,85,0.00,,,0.00,HR-IXPWINDi_r2_v1.2.,2013-01-09 09:24:00,
2013-01-09 03:29:00,31.2,27.2,29.86,SW,223,0.0,5.0,85,0.00,,,0.00,HR-IXPWINDi_r2_v1.2.,2013-01-09 09:29:00,
2013-01-09 03:34:00,31.2,27.2,29.86,SW,215,1.0,5.0,85,0.00,,,0.00,HR-IXPWINDi_r2_v1.2.,2013-01-09 09:34:00,
2013-01-09 03:39:00,31.1,27.1,29.86,WNW,282,1.0,5.0,85,0.00,,,0.00,HR-IXPWINDi_r2_v1.2.,2013-01-09 09:39:00,
2013-01-09 03:44:00,31.1,27.1,29.86,WNW,289,2.0,7.0,85,0.00,,,0.00,HR-IXPWINDi_r2_v1.2.,2013-01-09 09:44:00,
2013-01-09 03:50:00,31.1,27.4,29.86,West,263,1.0,7.0,86,0.00,,,0.00,HR-IXPWINDi_r2_v1.2.,2013-01-09 09:50:00,
2013-01-09 03:55:00,31.0,27.0,29.86,SW,225,1.0,4.0,85,0.00,,,0.00,HR-IXPWINDi_r2_v1.2.,2013-01-09 09:55:00,
2013-01-09 04:00:00,31.0,27.0,29.86,SW,220,1.0,3.0,85,0.00,,,0.00,HR-IXPWINDi_r2_v1.2.,2013-01-09 10:00:00,
2013-01-09 04:05:00,31.0,27.0,29.86,SW,220,2.0,3.0,85,0.00,,,0.00,HR-IXPWINDi_r2_v1.2.,2013-01-09 10:05:00,
2013-01-09 04:11:00,30.9,26.9,29.86,SE,145,0.0,3.0,85,0.00,,,0.00,HR-IXPWINDi_r2_v1.2.,2013-01-09 10:11:00,
2013-01-09 04:16:00,30.9,26.9,29.86,SW,222,1.0,3.0,85,0.00,,,0.00,HR-IXPWINDi_r2_v1.2.,2013-01-09 10:16:00,
2013-01-09 04:21:00,30.9,27.2,29.86,SW,225,0.0,3.0,86,0.00,,,0.00,HR-IXPWINDi_r2_v1.2.,2013-01-09 10:21:00,
2013-01-09 04:26:00,30.9,27.2,29.85,SW,225,1.0,2.0,86,0.00,,,0.00,HR-IXPWINDi_r2_v1.2.,2013-01-09 10:26:00,
2013-01-09 04:31:00,30.9,27.2,29.85,SSW,203,0.0,3.0,86,0.00,,,0.00,HR-IXPWINDi_r2_v1.2.,2013-01-09 10:31:00,
2013-01-09 04:36:00,30.9,27.2,29.86,SSW,210,2.0,3.0,86,0.00,,,0.00,HR-IXPWINDi_r2_v1.2.,2013-01-09 10:36:00,
2013-01-09 04:41:00,30.9,27.2,29.86,West,279,0.0,3.0,86,0.00,,,0.00,HR-IXPWINDi_r2_v1.2.,2013-01-09 10:41:00,
2013-01-09 04:46:00,30.8,27.1,29.86,West,269,1.0,3.0,86,0.00,,,0.00,HR-IXPWINDi_r2_v1.2.,2013-01-09 10:46:00,
2013-01-09 04:52:00,30.8,27.1,29.86,SSW,208,3.0,5.0,86,0.00,,,0.00,HR-IXPWINDi_r2_v1.2.,2013-01-09 10:52:00,
2013-01-09 04:57:00,30.8,27.1,29.86,SW,232,1.0,5.0,86,0.00,,,0.00,HR-IXPWINDi_r2_v1.2.,2013-01-09 10:57:00,
2013-01-09 05:02:00,30.7,27.0,29.87,SW,233,0.0,3.0,86,0.00,,,0.00,HR-IXPWINDi_r2_v1.2.,2013-01-09 11:02:00,
2013-01-09 05:07:00,30.7,27.0,29.87,WSW,242,0.0,3.0,86,0.00,,,0.00,HR-IXPWINDi_r2_v1.2.,2013-01-09 11:07:00,
2013-01-09 05:13:00,30.6,26.9,29.87,WSW,241,2.0,3.0,86,0.00,,,0.00,HR-IXPWINDi_r2_v1.2.,2013-01-09 11:13:00,
2013-01-09 05:18:00,30.6,26.9,29.87,WSW,242,2.0,3.0,86,0.00,,,0.00,HR-IXPWINDi_r2_v1.2.,2013-01-09 11:18:00,
2013-01-09 05:23:00,30.4,26.7,29.87,SSW,209,1.0,5.0,86,0.00,,,0.00,HR-IXPWINDi_r2_v1.2.,2013-01-09 11:23:00,
2013-01-09 05:28:00,30.2,26.5,29.87,WSW,249,1.0,5.0,86,0.00,,,0.00,HR-IXPWINDi_r2_v1.2.,2013-01-09 11:28:00,
2013-01-09 05:33:00,30.0,26.3,29.86,WSW,240,0.0,4.0,86,0.00,,,0.00,HR-IXPWINDi_r2_v1.2.,2013-01-09 11:33:00,
2013-01-09 05:39:00,29.9,26.2,29.87,West,279,0.0,4.0,86,0.00,,,0.00,HR-IXPWINDi_r2_v1.2.,2013-01-09 11:39:00,
2013-01-09 05:44:00,29.7,26.0,29.87,SW,215,0.0,3.0,86,0.00,,,0.00,HR-IXPWINDi_r2_v1.2.,2013-01-09 11:44:00,
2013-01-09 05:49:00,29.6,25.9,29.87,SW,215,1.0,3.0,86,0.00,,,0.00,HR-IXPWINDi_r2_v1.2.,2013-01-09 11:49:00,
2013-01-09 05:54:00,29.5,26.1,29.87,SW,215,0.0,3.0,87,0.00,,,0.00,HR-IXPWINDi_r2_v1.2.,2013-01-09 11:54:00,
2013-01-09 05:59:00,29.3,25.9,29.87,SW,215,0.0,3.0,87,0.00,,,0.00,HR-IXPWINDi_r2_v1.2.,2013-01-09 11:59:00,
2013-01-09 06:05:00,29.2,25.8,29.87,SW,215,2.0,3.0,87,0.00,,,0.00,HR-IXPWINDi_r2_v1.2.,2013-01-09 12:05:00,
2013-01-09 06:10:00,29.0,25.6,29.87,SW,228,2.0,3.0,87,0.00,,,0.00,HR-IXPWINDi_r2_v1.2.,2013-01-09 12:10:00,
2013-01-09 06:15:00,29.0,25.6,29.87,SW,228,0.0,3.0,87,0.00,,,0.00,HR-IXPWINDi_r2_v1.2.,2013-01-09 12:15:00,
2013-01-09 06:20:00,29.0,25.6,29.87,SW,231,1.0,3.0,87,0.00,,,0.00,HR-IXPWINDi_r2_v1.2.,2013-01-09 12:20:00,
2013-01-09 06:25:00,28.9,25.8,29.87,SW,231,2.0,3.0,88,0.00,,,0.00,HR-IXPWINDi_r2_v1.2.,2013-01-09 12:25:00,
2013-01-09 06:30:00,28.8,25.7,29.87,SW,228,2.0,4.0,88,0.00,,,0.00,HR-IXPWINDi_r2_v1.2.,2013-01-09 12:30:00,
2013-01-09 06:35:00,28.8,25.7,29.86,SW,234,2.0,5.0,88,0.00,,,0.00,HR-IXPWINDi_r2_v1.2.,2013-01-09 12:35:00,
2013-01-09 06:40:00,28.8,25.7,29.87,WSW,238,3.0,5.0,88,0.00,,,0.00,HR-IXPWINDi_r2_v1.2.,2013-01-09 12:40:00,
2013-01-09 06:46:00,28.7,25.6,29.87,WSW,238,1.0,4.0,88,0.00,,,0.00,HR-IXPWINDi_r2_v1.2.,2013-01-09 12:46:00,
2013-01-09 06:51:00,28.7,25.6,29.87,SW,236,3.0,5.0,88,0.00,,,0.00,HR-IXPWINDi_r2_v1.2.,2013-01-09 12:51:00,
2013-01-09 06:56:00,28.7,25.6,29.87,SW,229,4.0,5.0,88,0.00,,,0.00,HR-IXPWINDi_r2_v1.2.,2013-01-09 12:56:00,
2013-01-09 07:01:00,28.8,25.7,29.88,SW,226,1.0,5.0,88,0.00,,,0.00,HR-IXPWINDi_r2_v1.2.,2013-01-09 13:01:00,
2013-01-09 07:07:00,28.8,25.7,29.88,WSW,240,2.0,5.0,88,0.00,,,0.00,HR-IXPWINDi_r2_v1.2.,2013-01-09 13:07:00,
2013-01-09 07:12:00,29.0,25.9,29.88,WSW,247,3.0,7.0,88,0.00,,,0.00,HR-IXPWINDi_r2_v1.2.,2013-01-09 13:12:00,
2013-01-09 07:17:00,29.1,25.7,29.88,WSW,258,1.0,7.0,87,0.00,,,0.00,HR-IXPWINDi_r2_v1.2.,2013-01-09 13:17:00,
2013-01-09 07:22:00,29.3,25.9,29.88,SW,225,3.0,7.0,87,0.00,,,0.00,HR-IXPWINDi_r2_v1.2.,2013-01-09 13:22:00,
2013-01-09 07:27:00,29.5,25.8,29.88,SW,233,0.0,4.0,86,0.00,,,0.00,HR-IXPWINDi_r2_v1.2.,2013-01-09 13:27:00,
2013-01-09 07:32:00,29.6,25.9,29.89,West,265,0.0,6.0,86,0.00,,,0.00,HR-IXPWINDi_r2_v1.2.,2013-01-09 13:32:00,
2013-01-09 07:37:00,29.7,25.7,29.88,WSW,238,2.0,6.0,85,0.00,,,0.00,HR-IXPWINDi_r2_v1.2.,2013-01-09 13:37:00,
2013-01-09 07:43:00,29.9,25.9,29.88,WSW,258,1.0,6.0,85,0.00,,,0.00,HR-IXPWINDi_r2_v1.2.,2013-01-09 13:43:00,
2013-01-09 07:48:00,29.9,25.6,29.89,SSW,209,1.0,6.0,84,0.00,,,0.00,HR-IXPWINDi_r2_v1.2.,2013-01-09 13:48:00,
2013-01-09 07:53:00,30.0,25.7,29.88,WSW,243,2.0,7.0,84,0.00,,,0.00,HR-IXPWINDi_r2_v1.2.,2013-01-09 13:53:00,
2013-01-09 07:58:00,30.1,25.8,29.89,West,262,2.0,7.0,84,0.00,,,0.00,HR-IXPWINDi_r2_v1.2.,2013-01-09 13:58:00,
2013-01-09 08:03:00,30.2,25.7,29.90,SW,223,0.0,7.0,83,0.00,,,0.00,HR-IXPWINDi_r2_v1.2.,2013-01-09 14:03:00,
2013-01-09 08:09:00,30.2,25.7,29.90,WSW,249,2.0,6.0,83,0.00,,,0.00,HR-IXPWINDi_r2_v1.2.,2013-01-09 14:09:00,
2013-01-09 08:14:00,30.2,25.7,29.90,SE,124,2.0,4.0,83,0.00,,,0.00,HR-IXPWINDi_r2_v1.2.,2013-01-09 14:14:00,
2013-01-09 08:19:00,30.2,25.4,29.90,SW,228,2.0,5.0,82,0.00,,,0.00,HR-IXPWINDi_r2_v1.2.,2013-01-09 14:19:00,
2013-01-09 08:24:00,30.2,25.7,29.90,NW,305,0.0,5.0,83,0.00,,,0.00,HR-IXPWINDi_r2_v1.2.,2013-01-09 14:24:00,
2013-01-09 08:30:00,30.2,25.7,29.90,SW,221,2.0,6.0,83,0.00,,,0.00,HR-IXPWINDi_r2_v1.2.,2013-01-09 14:30:00,
2013-01-09 08:35:00,30.3,25.5,29.90,SW,232,3.0,6.0,82,0.00,,,0.00,HR-IXPWINDi_r2_v1.2.,2013-01-09 14:35:00,
2013-01-09 08:40:00,30.4,25.6,29.91,SW,221,2.0,6.0,82,0.00,,,0.00,HR-IXPWINDi_r2_v1.2.,2013-01-09 14:40:00,
2013-01-09 08:45:00,30.5,25.7,29.91,SSW,200,0.0,7.0,82,0.00,,,0.00,HR-IXPWINDi_r2_v1.2.,2013-01-09 14:45:00,
2013-01-09 08:50:00,30.5,25.7,29.91,WNW,298,1.0,7.0,82,0.00,,,0.00,HR-IXPWINDi_r2_v1.2.,2013-01-09 14:50:00,
2013-01-09 08:55:00,30.5,25.4,29.91,SSW,213,1.0,7.0,81,0.00,,,0.00,HR-IXPWINDi_r2_v1.2.,2013-01-09 14:55:00,
2013-01-09 09:01:00,30.5,25.4,29.91,WSW,239,3.0,7.0,81,0.00,,,0.00,HR-IXPWINDi_r2_v1.2.,2013-01-09 15:01:00,
2013-01-09 09:06:00,30.6,25.5,29.92,SE,136,4.0,7.0,81,0.00,,,0.00,HR-IXPWINDi_r2_v1.2.,2013-01-09 15:06:00,
2013-01-09 09:11:00,30.6,25.2,29.92,South,189,1.0,7.0,80,0.00,,,0.00,HR-IXPWINDi_r2_v1.2.,2013-01-09 15:11:00,
2013-01-09 09:16:00,30.7,25.3,29.92,SSW,209,1.0,5.0,80,0.00,,,0.00,HR-IXPWINDi_r2_v1.2.,2013-01-09 15:16:00,
2013-01-09 09:21:00,30.7,25.3,29.92,SSE,147,1.0,10.0,80,0.00,,,0.00,HR-IXPWINDi_r2_v1.2.,2013-01-09 15:21:00,
2013-01-09 09:26:00,30.8,25.1,29.93,NW,318,6.0,10.0,79,0.00,,,0.00,HR-IXPWINDi_r2_v1.2.,2013-01-09 15:26:00,
2013-01-09 09:32:00,30.8,24.4,29.93,South,184,1.0,8.0,77,0.00,,,0.00,HR-IXPWINDi_r2_v1.2.,2013-01-09 15:32:00,
2013-01-09 09:37:00,30.9,24.5,29.94,East,80,2.0,6.0,77,0.00,,,0.00,HR-IXPWINDi_r2_v1.2.,2013-01-09 15:37:00,
2013-01-09 09:42:00,30.9,24.2,29.95,SSE,159,7.0,7.0,76,0.00,,,0.00,HR-IXPWINDi_r2_v1.2.,2013-01-09 15:42:00,
2013-01-09 09:47:00,31.1,24.1,29.95,SSW,204,2.0,7.0,75,0.00,,,0.00,HR-IXPWINDi_r2_v1.2.,2013-01-09 15:47:00,
2013-01-09 09:53:00,31.1,24.1,29.95,West,265,3.0,13.0,75,0.00,,,0.00,HR-IXPWINDi_r2_v1.2.,2013-01-09 15:53:00,
2013-01-09 09:58:00,31.1,24.1,29.96,North,355,1.0,13.0,75,0.00,,,0.00,HR-IXPWINDi_r2_v1.2.,2013-01-09 15:58:00,
2013-01-09 10:03:00,31.1,24.1,29.96,SE,127,1.0,6.0,75,0.00,,,0.00,HR-IXPWINDi_r2_v1.2.,2013-01-09 16:03:00,
2013-01-09 10:08:00,31.2,24.2,29.96,SSE,148,0.0,8.0,75,0.00,,,0.00,HR-IXPWINDi_r2_v1.2.,2013-01-09 16:08:00,
2013-01-09 10:13:00,31.2,24.2,29.97,NE,49,1.0,8.0,75,0.00,,,0.00,HR-IXPWINDi_r2_v1.2.,2013-01-09 16:13:00,
2013-01-09 10:18:00,31.1,24.1,29.97,SW,235,2.0,8.0,75,0.00,,,0.00,HR-IXPWINDi_r2_v1.2.,2013-01-09 16:18:00,
2013-01-09 10:23:00,31.0,23.7,29.98,ENE,71,3.0,8.0,74,0.00,,,0.00,HR-IXPWINDi_r2_v1.2.,2013-01-09 16:23:00,
2013-01-09 10:29:00,31.1,23.8,29.99,SW,223,0.0,6.0,74,0.00,,,0.00,HR-IXPWINDi_r2_v1.2.,2013-01-09 16:29:00,
2013-01-09 10:34:00,31.2,23.9,29.99,South,170,5.0,6.0,74,0.00,,,0.00,HR-IXPWINDi_r2_v1.2.,2013-01-09 16:34:00,
2013-01-09 10:39:00,31.2,23.9,30.00,WNW,301,0.0,8.0,74,0.00,,,0.00,HR-IXPWINDi_r2_v1.2.,2013-01-09 16:39:00,
2013-01-09 10:44:00,31.3,24.0,30.00,NE,38,2.0,8.0,74,0.00,,,0.00,HR-IXPWINDi_r2_v1.2.,2013-01-09 16:44:00,
2013-01-09 10:49:00,31.3,24.0,30.00,ENE,59,3.0,7.0,74,0.00,,,0.00,HR-IXPWINDi_r2_v1.2.,2013-01-09 16:49:00,
2013-01-09 10:54:00,31.3,24.0,30.00,East,94,0.0,7.0,74,0.00,,,0.00,HR-IXPWINDi_r2_v1.2.,2013-01-09 16:54:00,
2013-01-09 10:59:00,31.4,23.7,30.00,NNW,329,2.0,8.0,73,0.00,,,0.00,HR-IXPWINDi_r2_v1.2.,2013-01-09 16:59:00,
2013-01-09 11:04:00,31.5,23.5,30.01,WNW,302,1.0,8.0,72,0.00,,,0.00,HR-IXPWINDi_r2_v1.2.,2013-01-09 17:04:00,
2013-01-09 11:10:00,31.6,23.6,30.01,WNW,291,5.0,12.0,72,0.00,,,0.00,HR-IXPWINDi_r2_v1.2.,2013-01-09 17:10:00,
2013-01-09 11:15:00,31.6,23.6,30.01,SW,218,0.0,12.0,72,0.00,,,0.00,HR-IXPWINDi_r2_v1.2.,2013-01-09 17:15:00,
2013-01-09 11:20:00,31.7,23.7,30.01,North,349,1.0,12.0,72,0.00,,,0.00,HR-IXPWINDi_r2_v1.2.,2013-01-09 17:20:00,
2013-01-09 11:25:00,31.7,23.7,30.01,ENE,76,1.0,7.0,72,0.00,,,0.00,HR-IXPWINDi_r2_v1.2.,2013-01-09 17:25:00,
2013-01-09 11:30:00,31.8,23.5,30.02,NNW,343,8.0,10.0,71,0.00,,,0.00,HR-IXPWINDi_r2_v1.2.,2013-01-09 17:30:00,
2013-01-09 11:36:00,31.9,23.9,30.01,NNE,28,4.0,10.0,72,0.00,,,0.00,HR-IXPWINDi_r2_v1.2.,2013-01-09 17:36:00,
2013-01-09 11:41:00,32.1,23.4,30.02,ENE,73,2.0,9.0,70,0.00,,,0.00,HR-IXPWINDi_r2_v1.2.,2013-01-09 17:41:00,
2013-01-09 11:46:00,32.4,23.4,30.02,SSW,209,3.0,13.0,69,0.00,,,0.00,HR-IXPWINDi_r2_v1.2.,2013-01-09 17:46:00,
2013-01-09 11:51:00,32.5,23.1,30.02,South,181,1.0,13.0,68,0.00,,,0.00,HR-IXPWINDi_r2_v1.2.,2013-01-09 17:51:00,
2013-01-09 11:56:00,32.6,23.2,30.03,West,270,2.0,8.0,68,0.00,,,0.00,HR-IXPWINDi_r2_v1.2.,2013-01-09 17:56:00,
2013-01-09 12:02:00,32.7,23.0,30.03,South,190,4.0,11.0,67,0.00,,,0.00,HR-IXPWINDi_r2_v1.2.,2013-01-09 18:02:00,
2013-01-09 12:07:00,32.6,22.9,30.03,WSW,249,3.0,11.0,67,0.00,,,0.00,HR-IXPWINDi_r2_v1.2.,2013-01-09 18:07:00,
2013-01-09 12:12:00,32.5,22.4,30.03,WNW,301,1.0,9.0,66,0.00,,,0.00,HR-IXPWINDi_r2_v1.2.,2013-01-09 18:12:00,
2013-01-09 12:17:00,32.7,22.6,30.04,WNW,286,6.0,11.0,66,0.00,,,0.00,HR-IXPWINDi_r2_v1.2.,2013-01-09 18:17:00,
2013-01-09 12:22:00,33.1,22.6,30.04,NW,309,1.0,11.0,65,0.00,,,0.00,HR-IXPWINDi_r2_v1.2.,2013-01-09 18:22:00,
2013-01-09 12:28:00,33.5,23.7,30.04,West,262,2.0,10.0,67,0.00,,,0.00,HR-IXPWINDi_r2_v1.2.,2013-01-09 18:28:00,
2013-01-09 12:33:00,33.5,23.0,30.04,NNW,336,4.0,6.0,65,0.00,,,0.00,HR-IXPWINDi_r2_v1.2.,2013-01-09 18:33:00,
2013-01-09 12:38:00,33.3,22.8,30.05,West,276,1.0,10.0,65,0.00,,,0.00,HR-IXPWINDi_r2_v1.2.,2013-01-09 18:38:00,
2013-01-09 12:41:00,33.5,23.4,30.05,NNW,341,1.0,10.0,66,0.00,,,0.00,HR-IXPWINDi_r2_v1.2.,2013-01-09 18:41:00,
2013-01-09 12:44:00,33.6,23.1,30.05,SW,218,2.0,10.0,65,0.00,,,0.00,HR-IXPWINDi_r2_v1.2.,2013-01-09 18:44:00,
2013-01-09 12:48:00,33.8,23.3,30.05,WSW,247,4.0,8.0,65,0.00,,,0.00,HR-IXPWINDi_r2_v1.2.,2013-01-09 18:48:00,
2013-01-09 12:53:00,33.8,22.9,30.05,NE,40,0.0,9.0,64,0.00,,,0.00,HR-IXPWINDi_r2_v1.2.,2013-01-09 18:53:00,
2013-01-09 12:59:00,33.8,24.4,30.06,South,188,2.0,9.0,68,0.00,,,0.00,HR-IXPWINDi_r2_v1.2.,2013-01-09 18:59:00,
2013-01-09 13:04:00,33.7,22.8,30.07,ESE,117,1.0,8.0,64,0.00,,,0.00,HR-IXPWINDi_r2_v1.2.,2013-01-09 19:04:00,
2013-01-09 13:09:00,33.8,23.3,30.08,West,281,3.0,6.0,65,0.00,,,0.00,HR-IXPWINDi_r2_v1.2.,2013-01-09 19:09:00,
2013-01-09 13:14:00,33.9,23.4,30.08,West,261,3.0,6.0,65,0.00,,,0.00,HR-IXPWINDi_r2_v1.2.,2013-01-09 19:14:00,
2013-01-09 13:19:00,33.9,24.1,30.08,North,5,1.0,6.0,67,0.00,,,0.00,HR-IXPWINDi_r2_v1.2.,2013-01-09 19:19:00,
2013-01-09 13:24:00,33.9,23.4,30.09,NW,312,2.0,4.0,65,0.00,,,0.00,HR-IXPWINDi_r2_v1.2.,2013-01-09 19:24:00,
2013-01-09 13:29:00,33.9,23.4,30.09,West,259,2.0,8.0,65,0.00,,,0.00,HR-IXPWINDi_r2_v1.2.,2013-01-09 19:29:00,
2013-01-09 13:34:00,33.8,23.6,30.10,NNE,33,5.0,8.0,66,0.00,,,0.00,HR-IXPWINDi_r2_v1.2.,2013-01-09 19:34:00,
2013-01-09 13:40:00,33.8,23.3,30.10,West,262,3.0,7.0,65,0.00,,,0.00,HR-IXPWINDi_r2_v1.2.,2013-01-09 19:40:00,
2013-01-09 13:45:00,33.9,23.4,30.11,ENE,58,2.0,7.0,65,0.00,,,0.00,HR-IXPWINDi_r2_v1.2.,2013-01-09 19:45:00,
2013-01-09 13:50:00,33.9,23.0,30.12,South,184,1.0,6.0,64,0.00,,,0.00,HR-IXPWINDi_r2_v1.2.,2013-01-09 19:50:00,
2013-01-09 13:55:00,34.0,23.8,30.13,East,92,1.0,6.0,66,0.00,,,0.00,HR-IXPWINDi_r2_v1.2.,2013-01-09 19:55:00,
2013-01-09 14:01:00,34.2,24.0,30.13,East,84,4.0,8.0,66,0.00,,,0.00,HR-IXPWINDi_r2_v1.2.,2013-01-09 20:01:00,
2013-01-09 14:06:00,34.2,23.7,30.13,NW,313,2.0,8.0,65,0.00,,,0.00,HR-IXPWINDi_r2_v1.2.,2013-01-09 20:06:00,
2013-01-09 14:11:00,33.9,23.7,30.14,ESE,112,4.0,8.0,66,0.00,,,0.00,HR-IXPWINDi_r2_v1.2.,2013-01-09 20:11:00,
2013-01-09 14:16:00,33.8,23.6,30.16,WSW,242,0.0,4.0,66,0.00,,,0.00,HR-IXPWINDi_r2_v1.2.,2013-01-09 20:16:00,
2013-01-09 14:21:00,33.5,23.7,30.17,SSW,194,0.0,6.0,67,0.00,,,0.00,HR-IXPWINDi_r2_v1.2.,2013-01-09 20:21:00,
2013-01-09 14:27:00,33.4,24.0,30.18,WNW,296,4.0,6.0,68,0.00,,,0.00,HR-IXPWINDi_r2_v1.2.,2013-01-09 20:27:00,
2013-01-09 14:32:00,33.4,23.6,30.18,NE,36,1.0,6.0,67,0.00,,,0.00,HR-IXPWINDi_r2_v1.2.,2013-01-09 20:32:00,
2013-01-09 14:37:00,33.4,23.6,30.19,SSW,202,1.0,5.0,67,0.00,,,0.00,HR-IXPWINDi_r2_v1.2.,2013-01-09 20:37:00,
2013-01-09 14:42:00,33.4,22.9,30.19,NW,325,4.0,10.0,65,0.00,,,0.00,HR-IXPWINDi_r2_v1.2.,2013-01-09 20:42:00,
2013-01-09 14:47:00,33.4,23.3,30.19,SSE,154,2.0,10.0,66,0.00,,,0.00,HR-IXPWINDi_r2_v1.2.,2013-01-09 20:47:00,
2013-01-09 14:52:00,33.5,23.4,30.20,South,178,1.0,8.0,66,0.00,,,0.00,HR-IXPWINDi_r2_v1.2.,2013-01-09 20:52:00,
2013-01-09 14:58:00,33.4,23.6,30.20,WNW,284,0.0,8.0,67,0.00,,,0.00,HR-IXPWINDi_r2_v1.2.,2013-01-09 20:58:00,
2013-01-09 15:03:00,33.3,23.2,30.20,SE,129,0.0,4.0,66,0.00,,,0.00,HR-IXPWINDi_r2_v1.2.,2013-01-09 21:03:00,
2013-01-09 15:08:00,33.3,23.2,30.21,North,355,2.0,10.0,66,0.00,,,0.00,HR-IXPWINDi_r2_v1.2.,2013-01-09 21:08:00,
2013-01-09 15:13:00,33.2,23.1,30.21,North,349,1.0,10.0,66,0.00,,,0.00,HR-IXPWINDi_r2_v1.2.,2013-01-09 21:13:00,
2013-01-09 15:18:00,33.2,23.1,30.21,ESE,113,0.0,6.0,66,0.00,,,0.00,HR-IXPWINDi_r2_v1.2.,2013-01-09 21:18:00,
2013-01-09 15:24:00,33.2,23.1,30.22,South,178,1.0,6.0,66,0.00,,,0.00,HR-IXPWINDi_r2_v1.2.,2013-01-09 21:24:00,
2013-01-09 15:29:00,33.1,23.0,30.22,East,85,0.0,6.0,66,0.00,,,0.00,HR-IXPWINDi_r2_v1.2.,2013-01-09 21:29:00,
2013-01-09 15:34:00,33.1,23.0,30.23,SE,126,2.0,5.0,66,0.00,,,0.00,HR-IXPWINDi_r2_v1.2.,2013-01-09 21:34:00,
2013-01-09 15:39:00,33.0,22.9,30.23,WSW,241,2.0,9.0,66,0.00,,,0.00,HR-IXPWINDi_r2_v1.2.,2013-01-09 21:39:00,
2013-01-09 15:44:00,32.8,22.7,30.24,NE,52,1.0,9.0,66,0.00,,,0.00,HR-IXPWINDi_r2_v1.2.,2013-01-09 21:44:00,
2013-01-09 15:50:00,32.6,22.9,30.24,West,264,2.0,5.0,67,0.00,,,0.00,HR-IXPWINDi_r2_v1.2.,2013-01-09 21:50:00,
2013-01-09 15:55:00,32.5,22.8,30.24,NW,318,0.0,5.0,67,0.00,,,0.00,HR-IXPWINDi_r2_v1.2.,2013-01-09 21:55:00,
2013-01-09 16:00:00,32.3,22.6,30.25,NW,318,0.0,5.0,67,0.00,,,0.00,HR-IXPWINDi_r2_v1.2.,2013-01-09 22:00:00,
2013-01-09 16:06:00,32.2,22.8,30.25,NW,321,0.0,5.0,68,0.00,,,0.00,HR-IXPWINDi_r2_v1.2.,2013-01-09 22:06:00,
2013-01-09 16:11:00,32.0,22.6,30.25,ENE,62,0.0,5.0,68,0.00,,,0.00,HR-IXPWINDi_r2_v1.2.,2013-01-09 22:11:00,
2013-01-09 16:16:00,31.9,22.9,30.26,ENE,63,0.0,2.0,69,0.00,,,0.00,HR-IXPWINDi_r2_v1.2.,2013-01-09 22:16:00,
2013-01-09 16:21:00,31.7,22.7,30.26,West,275,1.0,3.0,69,0.00,,,0.00,HR-IXPWINDi_r2_v1.2.,2013-01-09 22:21:00,
2013-01-09 16:26:00,31.5,22.8,30.27,WNW,287,0.0,3.0,70,0.00,,,0.00,HR-IXPWINDi_r2_v1.2.,2013-01-09 22:26:00,
2013-01-09 16:32:00,31.4,22.7,30.27,WNW,300,0.0,4.0,70,0.00,,,0.00,HR-IXPWINDi_r2_v1.2.,2013-01-09 22:32:00,
2013-01-09 16:37:00,31.3,22.7,30.28,WSW,256,2.0,4.0,70,0.00,,,0.00,HR-IXPWINDi_r2_v1.2.,2013-01-09 22:37:00,
2013-01-09 16:42:00,31.0,22.7,30.29,SE,143,2.0,3.0,71,0.00,,,0.00,HR-IXPWINDi_r2_v1.2.,2013-01-09 22:42:00,
2013-01-09 16:47:00,30.8,22.5,30.29,SSW,192,2.0,5.0,71,0.00,,,0.00,HR-IXPWINDi_r2_v1.2.,2013-01-09 22:47:00,
2013-01-09 16:52:00,30.7,22.4,30.29,WSW,246,1.0,5.0,71,0.00,,,0.00,HR-IXPWINDi_r2_v1.2.,2013-01-09 22:52:00,
2013-01-09 16:57:00,30.6,22.3,30.29,WSW,246,0.0,4.0,71,0.00,,,0.00,HR-IXPWINDi_r2_v1.2.,2013-01-09 22:57:00,
2013-01-09 17:02:00,30.4,22.1,30.29,SW,215,0.0,4.0,71,0.00,,,0.00,HR-IXPWINDi_r2_v1.2.,2013-01-09 23:02:00,
2013-01-09 17:07:00,30.4,22.1,30.29,SE,139,0.0,5.0,71,0.00,,,0.00,HR-IXPWINDi_r2_v1.2.,2013-01-09 23:07:00,
2013-01-09 17:13:00,30.2,21.9,30.29,ENE,63,0.0,5.0,71,0.00,,,0.00,HR-IXPWINDi_r2_v1.2.,2013-01-09 23:13:00,
2013-01-09 17:18:00,30.1,22.2,30.30,SE,130,0.0,4.0,72,0.00,,,0.00,HR-IXPWINDi_r2_v1.2.,2013-01-09 23:18:00,
2013-01-09 17:23:00,30.0,22.1,30.30,NW,323,2.0,4.0,72,0.00,,,0.00,HR-IXPWINDi_r2_v1.2.,2013-01-09 23:23:00,
2013-01-09 17:28:00,29.9,22.0,30.30,NW,313,0.0,3.0,72,0.00,,,0.00,HR-IXPWINDi_r2_v1.2.,2013-01-09 23:28:00,
2013-01-09 17:33:00,29.8,21.9,30.30,ENE,78,0.0,3.0,72,0.00,,,0.00,HR-IXPWINDi_r2_v1.2.,2013-01-09 23:33:00,
2013-01-09 17:38:00,29.7,22.1,30.30,ENE,77,0.0,2.0,73,0.00,,,0.00,HR-IXPWINDi_r2_v1.2.,2013-01-09 23:38:00,
2013-01-09 17:43:00,29.6,22.0,30.30,ESE,115,0.0,2.0,73,0.00,,,0.00,HR-IXPWINDi_r2_v1.2.,2013-01-09 23:43:00,
2013-01-09 17:48:00,29.5,22.2,30.31,NNE,25,1.0,4.0,74,0.00,,,0.00,HR-IXPWINDi_r2_v1.2.,2013-01-09 23:48:00,
2013-01-09 17:53:00,29.5,21.9,30.31,NNW,333,0.0,4.0,73,0.00,,,0.00,HR-IXPWINDi_r2_v1.2.,2013-01-09 23:53:00,
2013-01-09 17:59:00,29.4,21.8,30.32,ESE,123,0.0,2.0,73,0.00,,,0.00,HR-IXPWINDi_r2_v1.2.,2013-01-09 23:59:00,
2013-01-09 18:04:00,29.3,21.7,30.32,NNE,19,1.0,3.0,73,0.00,,,0.00,HR-IXPWINDi_r2_v1.2.,2013-01-10 00:04:00,
2013-01-09 18:09:00,29.3,21.7,30.33,NNW,332,0.0,3.0,73,0.00,,,0.00,HR-IXPWINDi_r2_v1.2.,2013-01-10 00:09:00,
2013-01-09 18:15:00,29.2,21.9,30.33,SE,126,1.0,3.0,74,0.00,,,0.00,HR-IXPWINDi_r2_v1.2.,2013-01-10 00:15:00,
2013-01-09 18:20:00,29.1,21.5,30.34,ENE,61,1.0,3.0,73,0.00,,,0.00,HR-IXPWINDi_r2_v1.2.,2013-01-10 00:20:00,
2013-01-09 18:25:00,29.1,21.9,30.34,ESE,109,1.0,4.0,74,0.00,,,0.00,HR-IXPWINDi_r2_v1.2.,2013-01-10 00:25:00,
2013-01-09 18:30:00,29.0,21.8,30.34,SSW,202,0.0,4.0,74,0.00,,,0.00,HR-IXPWINDi_r2_v1.2.,2013-01-10 00:30:00,
2013-01-09 18:35:00,28.9,21.7,30.34,NE,37,0.0,4.0,74,0.00,,,0.00,HR-IXPWINDi_r2_v1.2.,2013-01-10 00:35:00,
2013-01-09 18:40:00,28.9,21.7,30.34,NE,37,1.0,2.0,74,0.00,,,0.00,HR-IXPWINDi_r2_v1.2.,2013-01-10 00:40:00,
2013-01-09 18:45:00,28.8,21.6,30.34,NE,37,0.0,2.0,74,0.00,,,0.00,HR-IXPWINDi_r2_v1.2.,2013-01-10 00:45:00,
2013-01-09 18:51:00,28.8,21.6,30.35,ESE,109,0.0,2.0,74,0.00,,,0.00,HR-IXPWINDi_r2_v1.2.,2013-01-10 00:51:00,
2013-01-09 18:56:00,28.7,21.5,30.35,NE,55,1.0,2.0,74,0.00,,,0.00,HR-IXPWINDi_r2_v1.2.,2013-01-10 00:56:00,
2013-01-09 19:01:00,28.6,21.4,30.35,ENE,59,0.0,2.0,74,0.00,,,0.00,HR-IXPWINDi_r2_v1.2.,2013-01-10 01:01:00,
2013-01-09 19:06:00,28.5,21.6,30.36,ENE,57,1.0,2.0,75,0.00,,,0.00,HR-IXPWINDi_r2_v1.2.,2013-01-10 01:06:00,
2013-01-09 19:12:00,28.5,21.6,30.36,ESE,111,0.0,2.0,75,0.00,,,0.00,HR-IXPWINDi_r2_v1.2.,2013-01-10 01:12:00,
2013-01-09 19:17:00,28.4,21.5,30.36,ESE,111,0.0,2.0,75,0.00,,,0.00,HR-IXPWINDi_r2_v1.2.,2013-01-10 01:17:00,
2013-01-09 19:22:00,28.3,21.4,30.36,ESE,111,0.0,1.0,75,0.00,,,0.00,HR-IXPWINDi_r2_v1.2.,2013-01-10 01:22:00,
2013-01-09 19:27:00,28.1,21.2,30.36,ESE,111,0.0,1.0,75,0.00,,,0.00,HR-IXPWINDi_r2_v1.2.,2013-01-10 01:27:00,
2013-01-09 19:32:00,28.0,21.4,30.37,ESE,111,0.0,1.0,76,0.00,,,0.00,HR-IXPWINDi_r2_v1.2.,2013-01-10 01:32:00,
2013-01-09 19:38:00,27.9,21.3,30.37,ESE,111,0.0,2.0,76,0.00,,,0.00,HR-IXPWINDi_r2_v1.2.,2013-01-10 01:38:00,
2013-01-09 19:43:00,27.8,21.5,30.37,ESE,111,0.0,2.0,77,0.00,,,0.00,HR-IXPWINDi_r2_v1.2.,2013-01-10 01:43:00,
2013-01-09 19:48:00,27.6,21.3,30.37,WSW,256,0.0,3.0,77,0.00,,,0.00,HR-IXPWINDi_r2_v1.2.,2013-01-10 01:48:00,
2013-01-09 19:53:00,27.5,21.2,30.38,WSW,257,0.0,3.0,77,0.00,,,0.00,HR-IXPWINDi_r2_v1.2.,2013-01-10 01:53:00,
2013-01-09 19:58:00,27.4,21.5,30.38,WSW,257,0.0,1.0,78,0.00,,,0.00,HR-IXPWINDi_r2_v1.2.,2013-01-10 01:58:00,
2013-01-09 20:03:00,27.3,21.4,30.38,WSW,257,0.0,1.0,78,0.00,,,0.00,HR-IXPWINDi_r2_v1.2.,2013-01-10 02:03:00,
2013-01-09 20:08:00,27.2,21.3,30.38,WSW,257,0.0,1.0,78,0.00,,,0.00,HR-IXPWINDi_r2_v1.2.,2013-01-10 02:08:00,
2013-01-09 20:13:00,27.0,21.1,30.39,WSW,257,0.0,1.0,78,0.00,,,0.00,HR-IXPWINDi_r2_v1.2.,2013-01-10 02:13:00,
2013-01-09 20:18:00,27.0,21.1,30.39,WSW,257,1.0,1.0,78,0.00,,,0.00,HR-IXPWINDi_r2_v1.2.,2013-01-10 02:18:00,
2013-01-09 20:24:00,26.9,21.3,30.40,WSW,257,0.0,1.0,79,0.00,,,0.00,HR-IXPWINDi_r2_v1.2.,2013-01-10 02:24:00,
2013-01-09 20:29:00,26.7,21.1,30.40,WSW,257,0.0,1.0,79,0.00,,,0.00,HR-IXPWINDi_r2_v1.2.,2013-01-10 02:29:00,
2013-01-09 20:34:00,26.6,21.0,30.40,WSW,257,0.0,1.0,79,0.00,,,0.00,HR-IXPWINDi_r2_v1.2.,2013-01-10 02:34:00,
2013-01-09 20:39:00,26.5,20.9,30.41,WSW,257,0.0,1.0,79,0.00,,,0.00,HR-IXPWINDi_r2_v1.2.,2013-01-10 02:39:00,
2013-01-09 20:45:00,26.3,20.7,30.40,WSW,257,0.0,1.0,79,0.00,,,0.00,HR-IXPWINDi_r2_v1.2.,2013-01-10 02:45:00,
2013-01-09 20:50:00,26.2,20.6,30.41,West,261,0.0,1.0,79,0.00,,,0.00,HR-IXPWINDi_r2_v1.2.,2013-01-10 02:50:00,
2013-01-09 20:55:00,26.1,20.8,30.41,West,261,0.0,1.0,80,0.00,,,0.00,HR-IXPWINDi_r2_v1.2.,2013-01-10 02:55:00,
2013-01-09 21:00:00,25.9,20.3,30.42,West,260,0.0,1.0,79,0.00,,,0.00,HR-IXPWINDi_r2_v1.2.,2013-01-10 03:00:00,
2013-01-09 21:05:00,25.8,20.5,30.42,West,260,0.0,1.0,80,0.00,,,0.00,HR-IXPWINDi_r2_v1.2.,2013-01-10 03:05:00,
2013-01-09 21:10:00,25.6,20.3,30.43,West,261,0.0,0.0,80,0.00,,,0.00,HR-IXPWINDi_r2_v1.2.,2013-01-10 03:10:00,
2013-01-09 21:15:00,25.4,20.1,30.43,West,261,0.0,0.0,80,0.00,,,0.00,HR-IXPWINDi_r2_v1.2.,2013-01-10 03:15:00,
2013-01-09 21:20:00,25.2,19.9,30.43,West,260,0.0,0.0,80,0.00,,,0.00,HR-IXPWINDi_r2_v1.2.,2013-01-10 03:20:00,
2013-01-09 21:26:00,25.0,20.0,30.43,West,261,0.0,0.0,81,0.00,,,0.00,HR-IXPWINDi_r2_v1.2.,2013-01-10 03:26:00,
2013-01-09 21:31:00,24.8,19.8,30.43,West,261,0.0,0.0,81,0.00,,,0.00,HR-IXPWINDi_r2_v1.2.,2013-01-10 03:31:00,
2013-01-09 21:36:00,24.6,19.6,30.44,West,261,0.0,0.0,81,0.00,,,0.00,HR-IXPWINDi_r2_v1.2.,2013-01-10 03:36:00,
2013-01-09 21:41:00,24.3,19.3,30.43,West,260,0.0,0.0,81,0.00,,,0.00,HR-IXPWINDi_r2_v1.2.,2013-01-10 03:41:00,
2013-01-09 21:47:00,24.2,19.5,30.43,West,260,0.0,0.0,82,0.00,,,0.00,HR-IXPWINDi_r2_v1.2.,2013-01-10 03:47:00,
2013-01-09 21:52:00,24.0,19.6,30.43,West,261,0.0,0.0,83,0.00,,,0.00,HR-IXPWINDi_r2_v1.2.,2013-01-10 03:52:00,
2013-01-09 21:57:00,23.8,19.4,30.43,West,260,0.0,0.0,83,0.00,,,0.00,HR-IXPWINDi_r2_v1.2.,2013-01-10 03:57:00,
2013-01-09 22:02:00,23.6,19.5,30.43,West,261,0.0,0.0,84,0.00,,,0.00,HR-IXPWINDi_r2_v1.2.,2013-01-10 04:02:00,
2013-01-09 22:07:00,23.4,19.0,30.43,West,260,0.0,0.0,83,0.00,,,0.00,HR-IXPWINDi_r2_v1.2.,2013-01-10 04:07:00,
2013-01-09 22:12:00,23.3,18.9,30.44,West,261,0.0,0.0,83,0.00,,,0.00,HR-IXPWINDi_r2_v1.2.,2013-01-10 04:12:00,
2013-01-09 22:17:00,23.1,19.0,30.44,West,260,0.0,0.0,84,0.00,,,0.00,HR-IXPWINDi_r2_v1.2.,2013-01-10 04:17:00,
2013-01-09 22:22:00,22.8,18.7,30.44,West,260,0.0,0.0,84,0.00,,,0.00,HR-IXPWINDi_r2_v1.2.,2013-01-10 04:22:00,
2013-01-09 22:27:00,22.6,18.5,30.45,West,260,0.0,0.0,84,0.00,,,0.00,HR-IXPWINDi_r2_v1.2.,2013-01-10 04:27:00,
2013-01-09 22:32:00,22.5,18.7,30.45,West,260,0.0,0.0,85,0.00,,,0.00,HR-IXPWINDi_r2_v1.2.,2013-01-10 04:32:00,
2013-01-09 22:37:00,22.3,18.5,30.45,West,261,0.0,0.0,85,0.00,,,0.00,HR-IXPWINDi_r2_v1.2.,2013-01-10 04:37:00,
2013-01-09 22:43:00,22.0,18.2,30.46,West,260,0.0,0.0,85,0.00,,,0.00,HR-IXPWINDi_r2_v1.2.,2013-01-10 04:43:00,
2013-01-09 22:48:00,21.8,18.0,30.45,West,260,0.0,0.0,85,0.00,,,0.00,HR-IXPWINDi_r2_v1.2.,2013-01-10 04:48:00,
2013-01-09 22:53:00,21.6,18.1,30.44,West,260,0.0,0.0,86,0.00,,,0.00,HR-IXPWINDi_r2_v1.2.,2013-01-10 04:53:00,
2013-01-09 22:59:00,21.5,18.0,30.44,West,260,0.0,0.0,86,0.00,,,0.00,HR-IXPWINDi_r2_v1.2.,2013-01-10 04:59:00,
2013-01-09 23:00:00,21.5,18.0,30.44,West,260,0.0,0.0,86,0.00,,,0.00,HR-IXPWINDi_r2_v1.2.,2013-01-10 05:00:00,
2013-01-09 23:05:00,21.3,18.1,30.44,West,261,0.0,0.0,87,0.00,,,0.00,HR-IXPWINDi_r2_v1.2.,2013-01-10 05:05:00,
2013-01-09 23:10:00,21.2,18.0,30.44,West,261,0.0,0.0,87,0.00,,,0.00,HR-IXPWINDi_r2_v1.2.,2013-01-10 05:10:00,
2013-01-09 23:15:00,21.2,18.0,30.43,West,261,0.0,0.0,87,0.00,,,0.00,HR-IXPWINDi_r2_v1.2.,2013-01-10 05:15:00,
2013-01-09 23:20:00,21.0,17.8,30.43,West,260,0.0,0.0,87,0.00,,,0.00,HR-IXPWINDi_r2_v1.2.,2013-01-10 05:20:00,
2013-01-09 23:26:00,20.9,17.7,30.43,West,260,0.0,0.0,87,0.00,,,0.00,HR-IXPWINDi_r2_v1.2.,2013-01-10 05:26:00,
2013-01-09 23:31:00,20.7,17.5,30.43,West,260,0.0,0.0,87,0.00,,,0.00,HR-IXPWINDi_r2_v1.2.,2013-01-10 05:31:00,
2013-01-09 23:36:00,20.7,17.7,30.43,West,260,0.0,0.0,88,0.00,,,0.00,HR-IXPWINDi_r2_v1.2.,2013-01-10 05:36:00,
2013-01-09 23:42:00,20.5,17.5,30.42,West,261,0.0,0.0,88,0.00,,,0.00,HR-IXPWINDi_r2_v1.2.,2013-01-10 05:42:00,
2013-01-09 23:47:00,20.4,17.4,30.42,West,260,0.0,0.0,88,0.00,,,0.00,HR-IXPWINDi_r2_v1.2.,2013-01-10 05:47:00,
2013-01-09 23:52:00,20.2,17.2,30.42,West,261,1.0,1.0,88,0.00,,,0.00,HR-IXPWINDi_r2_v1.2.,2013-01-10 05:52:00,
2013-01-09 23:57:00,20.0,17.0,30.41,West,260,1.0,1.0,88,0.00,,,0.00,HR-IXPWINDi_r2_v1.2.,2013-01-10 05:57:00,